KMNN/MNN METAR and TAF weather

Enter ICAO airport designator
Station Type Date Time Source
KMNN METAR 2018/12/13 20:53 UTC NOAA

KMNN 132053Z AUTO 19007KT 6SM HZ OVC025 07/02 A3018 RMK AO2 SLP228 T00670022 53008


Station Type Date Time Source
KMNN Decoded METAR 2018/12/13 20:53 UTC NOAA

MARION MUNICIPAL AIRPORT, OH, United States (KMNN) 40-37N 83-04W 301M
Dec 13, 2018 - 03:53 PM EST / 2018.12.13 2053 UTC
Wind: from the S (190 degrees) at 8 MPH (7 KT):0
Visibility: 6 mile(s):0
Sky conditions: overcast
Weather: haze
Temperature: 44.1 F (6.7 C)
Dew Point: 36.0 F (2.2 C)
Relative Humidity: 72%
Pressure (altimeter): 30.18 in. Hg (1022 hPa)
Pressure tendency: 0.02 inches (0.8 hPa) higher than three hours ago
ob: KMNN 132053Z AUTO 19007KT 6SM HZ OVC025 07/02 A3018 RMK AO2 SLP228 T00670022 53008
cycle: 21

Station Type Date Time Source
KMNN TAF UTC NOAA

Error!


Example: see airport list